Terminal Aerodrome Forecast
Issued by NWS Chicago, IL

Home | Current Version | Previous Version | Graphics & Text | Print | Product List | Glossary On
Versions: 1 2 3 4 5 6 7 8 9 10 11 12 13 14 15 16 17 18 19 20 21 22 23 24 25 26 27 28 29 30 31
152
FTUS43 KLOT 290859 AAA
TAFRFD
TAF AMD
KRFD 290859Z 2909/3006 20008KT P6SM FEW090 SCT250
     FM291500 25014G22KT P6SM FEW045
     FM300100 23004KT P6SM SKC=

USA.gov is the U.S. government's official web portal to all federal, state and local government web resources and services.